createdAt,value
2022-09-16T00:00:27.933Z,971.70
2022-09-16T00:02:58.468Z,955.87
2022-09-16T00:05:29.651Z,974.33
2022-09-16T00:07:58.478Z,954.47
2022-09-16T00:10:28.674Z,954.80
2022-09-16T00:12:59.826Z,991.40
2022-09-16T00:15:30.529Z,937.50
2022-09-16T00:17:59.779Z,998.03
2022-09-16T00:20:31.583Z,984.83
2022-09-16T00:22:59.696Z,978.47
2022-09-16T00:25:30.638Z,970.50
2022-09-16T00:28:02.613Z,960.40
2022-09-16T00:30:30.695Z,990.47
2022-09-16T00:33:03.369Z,988.50
2022-09-16T00:35:33.889Z,990.20
2022-09-16T00:38:01.984Z,965.37
2022-09-16T00:40:32.407Z,976.10
2022-09-16T00:43:05.125Z,999.90
2022-09-16T00:45:36.141Z,967.57
2022-09-16T00:48:07.337Z,999.90
2022-09-16T00:50:38.964Z,997.57
2022-09-16T00:53:10.661Z,993.53
2022-09-16T00:55:40.123Z,994.83
2022-09-16T00:58:18.268Z,998.80
2022-09-16T01:00:46.966Z,976.83
2022-09-16T01:03:15.002Z,916.30
2022-09-16T01:05:47.449Z,970.60
2022-09-16T01:08:15.633Z,879.60
2022-09-16T01:10:43.961Z,913.80
2022-09-16T01:13:16.776Z,971.43
2022-09-16T01:15:52.714Z,969.10
2022-09-16T01:18:28.025Z,951.63
2022-09-16T01:21:14.887Z,963.03
2022-09-16T01:24:23.893Z,902.77
2022-09-16T01:27:31.628Z,858.23
2022-09-16T01:30:31.023Z,889.67
2022-09-16T01:33:05.201Z,887.63
2022-09-16T01:35:55.765Z,946.73
2022-09-16T01:38:38.916Z,961.30
2022-09-16T01:41:17.406Z,911.23
2022-09-16T01:43:54.737Z,969.37
2022-09-16T01:46:37.640Z,888.13
2022-09-16T01:49:18.173Z,915.73
2022-09-16T01:51:54.529Z,915.07
2022-09-16T01:54:33.305Z,945.07
2022-09-16T01:57:06.007Z,966.33
2022-09-16T01:59:40.866Z,964.30
2022-09-16T02:02:20.236Z,962.50
2022-09-16T02:04:55.041Z,968.23
2022-09-16T02:07:27.489Z,970.83
2022-09-16T02:09:59.404Z,999.90
2022-09-16T02:12:35.122Z,999.90
2022-09-16T02:15:08.127Z,986.13
2022-09-16T02:17:44.541Z,982.80
2022-09-16T02:20:18.590Z,947.27
2022-09-16T02:22:51.791Z,969.40
2022-09-16T02:25:21.080Z,982.43
2022-09-16T02:27:50.869Z,959.93
2022-09-16T02:30:24.724Z,976.37
2022-09-16T02:32:59.408Z,998.37
2022-09-16T02:35:29.800Z,980.67
2022-09-16T02:38:04.699Z,980.30
2022-09-16T02:40:37.551Z,926.63
2022-09-16T02:43:05.931Z,974.43
2022-09-16T02:45:41.777Z,965.23
2022-09-16T02:48:18.818Z,968.20
2022-09-16T02:50:54.930Z,964.43
2022-09-16T02:53:32.377Z,955.93
2022-09-16T02:56:06.104Z,951.53
2022-09-16T02:58:34.350Z,962.23
2022-09-16T03:01:05.991Z,977.93
2022-09-16T03:03:36.065Z,982.07
2022-09-16T03:06:21.171Z,990.73
2022-09-16T03:08:50.976Z,950.90
2022-09-16T03:11:41.663Z,984.10
2022-09-16T03:14:37.666Z,969.37
2022-09-16T03:17:20.551Z,964.90
2022-09-16T03:20:05.309Z,948.37
2022-09-16T03:22:46.986Z,963.30
2022-09-16T03:25:30.464Z,990.97
2022-09-16T03:28:08.694Z,962.37
2022-09-16T03:30:42.132Z,956.70
2022-09-16T03:33:20.126Z,905.07
2022-09-16T03:35:57.337Z,922.97
2022-09-16T03:38:25.727Z,975.83
2022-09-16T03:40:54.617Z,999.90
2022-09-16T03:43:25.662Z,999.90
2022-09-16T03:45:54.235Z,961.63
2022-09-16T03:48:22.383Z,977.37
2022-09-16T03:50:51.915Z,999.90
2022-09-16T03:53:20.721Z,999.90
2022-09-16T03:55:49.744Z,959.53
2022-09-16T03:58:17.892Z,975.90
2022-09-16T04:00:51.754Z,981.97
2022-09-16T04:03:21.250Z,925.70
2022-09-16T04:05:55.533Z,969.90
2022-09-16T04:08:25.959Z,938.60
2022-09-16T04:10:57.834Z,947.73
2022-09-16T04:13:26.613Z,924.97
2022-09-16T04:15:55.031Z,983.70
2022-09-16T04:18:25.395Z,948.03
2022-09-16T04:20:58.920Z,973.57
2022-09-16T04:23:27.515Z,966.90
2022-09-16T04:25:56.336Z,969.37
2022-09-16T04:28:36.970Z,968.40
2022-09-16T04:31:26.326Z,982.10
2022-09-16T04:34:04.292Z,950.87
2022-09-16T04:36:51.744Z,929.70
2022-09-16T04:39:26.170Z,894.30
2022-09-16T04:42:01.801Z,972.23
2022-09-16T04:44:32.491Z,953.77
2022-09-16T04:47:04.480Z,998.33
2022-09-16T04:49:41.810Z,934.40
2022-09-16T04:52:21.516Z,954.60
2022-09-16T04:55:04.128Z,950.40
2022-09-16T04:57:38.392Z,980.13
2022-09-16T05:00:26.958Z,966.47
2022-09-16T05:02:59.256Z,944.37
2022-09-16T05:05:28.048Z,971.47
2022-09-16T05:08:05.340Z,912.77
2022-09-16T05:10:48.860Z,942.37
2022-09-16T05:13:26.225Z,923.87
2022-09-16T05:15:59.888Z,966.63
2022-09-16T05:18:37.351Z,981.30
2022-09-16T05:21:12.455Z,959.60
2022-09-16T05:23:48.312Z,933.43
2022-09-16T05:26:20.998Z,941.03
2022-09-16T05:28:55.220Z,888.07
2022-09-16T05:31:38.291Z,850.77
2022-09-16T05:34:14.154Z,873.23
2022-09-16T05:36:51.001Z,714.03
2022-09-16T05:39:29.960Z,682.93
2022-09-16T05:42:07.666Z,698.17
2022-09-16T05:44:40.735Z,707.50
2022-09-16T05:47:15.241Z,740.13
2022-09-16T05:49:44.989Z,739.37
2022-09-16T05:52:14.709Z,790.57
2022-09-16T05:54:44.752Z,823.37
2022-09-16T05:57:14.647Z,906.27
2022-09-16T05:59:43.147Z,840.57
2022-09-16T06:02:12.849Z,841.10
2022-09-16T06:04:41.303Z,910.43
2022-09-16T06:07:09.574Z,912.47
2022-09-16T06:09:37.894Z,954.07
2022-09-16T06:12:08.171Z,948.87
2022-09-16T06:14:36.530Z,973.53
2022-09-16T06:17:05.080Z,979.47
2022-09-16T06:19:33.460Z,861.30
2022-09-16T06:22:01.900Z,860.60
2022-09-16T06:24:30.007Z,895.20
2022-09-16T06:26:58.511Z,893.13
2022-09-16T06:29:28.626Z,958.83
2022-09-16T06:31:57.291Z,933.70
2022-09-16T06:34:26.845Z,991.57
2022-09-16T06:36:55.143Z,999.90
2022-09-16T06:39:24.145Z,970.20
2022-09-16T06:41:53.037Z,903.57
2022-09-16T06:44:39.354Z,858.80
2022-09-16T06:47:11.122Z,814.97
2022-09-16T06:49:40.636Z,650.50
2022-09-16T06:52:09.541Z,666.13
2022-09-16T06:54:37.940Z,546.57
2022-09-16T06:57:11.895Z,891.33
2022-09-16T06:59:42.219Z,315.93
2022-09-16T07:02:12.100Z,381.67
2022-09-16T07:04:40.819Z,586.77
2022-09-16T07:07:10.775Z,689.83
2022-09-16T07:09:39.270Z,748.57
2022-09-16T07:12:08.435Z,773.00
2022-09-16T07:14:38.986Z,841.60
2022-09-16T07:17:10.894Z,777.90
2022-09-16T07:19:42.457Z,666.27
2022-09-16T07:22:12.987Z,578.90
2022-09-16T07:24:43.373Z,848.97
2022-09-16T07:27:13.714Z,869.00
2022-09-16T07:29:44.448Z,822.30
2022-09-16T07:32:16.774Z,999.90
2022-09-16T07:34:47.521Z,999.90
2022-09-16T07:37:20.111Z,999.90
2022-09-16T07:39:50.623Z,999.90
2022-09-16T07:42:21.059Z,999.90
2022-09-16T07:44:51.872Z,999.90
2022-09-16T07:47:23.939Z,999.90
2022-09-16T07:49:56.160Z,999.90
2022-09-16T07:52:29.835Z,999.90
2022-09-16T07:55:00.766Z,999.90
2022-09-16T07:57:31.242Z,999.90
2022-09-16T08:00:01.761Z,999.90
2022-09-16T08:02:43.701Z,999.90
2022-09-16T08:05:16.278Z,999.90
2022-09-16T08:07:46.886Z,999.90
2022-09-16T08:10:18.119Z,999.90
2022-09-16T08:12:48.990Z,999.90
2022-09-16T08:17:56.563Z,999.90
2022-09-16T08:20:28.399Z,999.90
2022-09-16T08:22:58.707Z,999.90
2022-09-16T08:25:29.765Z,999.90
2022-09-16T08:28:00.460Z,999.90
2022-09-16T08:30:31.675Z,999.90
2022-09-16T08:33:03.568Z,999.90
2022-09-16T08:35:34.300Z,999.90
2022-09-16T08:38:05.871Z,999.90
2022-09-16T08:40:37.995Z,999.90
2022-09-16T08:43:16.879Z,999.90
2022-09-16T08:45:55.458Z,999.90
2022-09-16T08:48:36.674Z,999.90
2022-09-16T08:51:10.680Z,999.90
2022-09-16T08:53:45.045Z,999.90
2022-09-16T08:56:20.127Z,999.90
2022-09-16T08:58:54.663Z,999.90
2022-09-16T09:01:34.147Z,999.90
2022-09-16T09:04:07.189Z,999.90
2022-09-16T09:07:00.536Z,999.90
2022-09-16T09:09:48.076Z,999.90
2022-09-16T09:12:26.868Z,999.90
2022-09-16T09:15:07.643Z,999.90
2022-09-16T09:17:52.729Z,999.90
2022-09-16T09:20:37.821Z,999.90
2022-09-16T09:23:36.334Z,999.90
2022-09-16T09:26:17.116Z,999.90
2022-09-16T09:29:12.553Z,999.90
2022-09-16T09:31:54.560Z,999.90
2022-09-16T09:34:44.655Z,999.90
2022-09-16T09:37:30.314Z,999.90
2022-09-16T09:40:11.044Z,999.90
2022-09-16T09:42:46.988Z,999.90
2022-09-16T09:45:28.514Z,999.90
2022-09-16T09:48:03.619Z,999.90
2022-09-16T09:50:41.898Z,999.90
2022-09-16T09:53:20.034Z,999.90
2022-09-16T09:55:55.741Z,999.90
2022-09-16T09:58:32.641Z,999.90
2022-09-16T10:01:03.121Z,999.90
2022-09-16T10:03:33.701Z,999.90
2022-09-16T10:06:04.181Z,999.90
2022-09-16T10:08:42.588Z,999.90
2022-09-16T10:11:18.664Z,999.90
2022-09-16T10:13:49.905Z,999.90
2022-09-16T10:16:25.998Z,999.90
2022-09-16T10:19:03.249Z,999.90
2022-09-16T10:21:43.671Z,999.90
2022-09-16T10:24:34.505Z,999.90
2022-09-16T10:27:21.131Z,999.90
2022-09-16T10:30:08.397Z,999.90
2022-09-16T10:32:47.959Z,999.90
2022-09-16T10:35:24.249Z,999.90
2022-09-16T10:37:57.025Z,748.37
2022-09-16T10:40:29.959Z,841.53
2022-09-16T10:43:03.875Z,600.10
2022-09-16T10:45:38.065Z,999.90
2022-09-16T10:48:14.913Z,822.17
2022-09-16T10:50:54.333Z,999.90
2022-09-16T10:53:37.645Z,828.23
2022-09-16T10:56:20.474Z,321.17
2022-09-16T10:58:51.265Z,806.47
2022-09-16T11:01:40.094Z,999.90
2022-09-16T11:04:39.159Z,999.90
2022-09-16T11:07:18.090Z,999.90
2022-09-16T11:09:59.419Z,999.90
2022-09-16T11:13:06.410Z,999.90
2022-09-16T11:15:50.057Z,999.90
2022-09-16T11:18:39.325Z,999.90
2022-09-16T11:21:29.243Z,999.90
2022-09-16T11:24:16.145Z,999.90
2022-09-16T11:26:55.296Z,999.90
2022-09-16T11:29:50.531Z,999.90
2022-09-16T11:32:31.154Z,999.90
2022-09-16T11:35:21.101Z,999.90
2022-09-16T11:37:58.450Z,999.90
2022-09-16T11:40:38.817Z,999.90
2022-09-16T11:43:46.316Z,999.90
2022-09-16T11:46:24.605Z,999.90
2022-09-16T11:49:08.603Z,999.90
2022-09-16T11:51:55.938Z,999.90
2022-09-16T11:54:52.284Z,999.90
2022-09-16T11:57:30.265Z,999.90
2022-09-16T12:00:05.465Z,999.90
2022-09-16T12:02:47.895Z,999.90
2022-09-16T12:05:21.709Z,999.90
2022-09-16T12:07:58.416Z,999.90
2022-09-16T12:10:33.922Z,999.90
2022-09-16T12:13:10.010Z,999.90
2022-09-16T12:15:46.215Z,999.90
2022-09-16T12:18:21.625Z,999.90
2022-09-16T12:20:58.721Z,999.90
2022-09-16T12:23:34.953Z,999.90
2022-09-16T12:26:10.050Z,999.90
2022-09-16T12:28:46.620Z,999.90
2022-09-16T12:31:27.530Z,999.90
2022-09-16T12:34:06.114Z,999.90
2022-09-16T12:36:40.570Z,999.90
2022-09-16T12:39:12.686Z,999.90
2022-09-16T12:42:05.384Z,999.90
2022-09-16T12:44:58.013Z,999.90
2022-09-16T12:47:51.885Z,999.90
2022-09-16T12:50:53.904Z,999.90
2022-09-16T12:53:55.752Z,999.90
2022-09-16T12:56:41.861Z,999.90
2022-09-16T12:59:48.689Z,999.90
2022-09-16T13:02:21.906Z,999.90
2022-09-16T13:04:55.681Z,999.90
2022-09-16T13:07:30.435Z,999.90
2022-09-16T13:10:04.113Z,999.90
2022-09-16T13:12:42.797Z,999.90
2022-09-16T13:15:25.820Z,999.90
2022-09-16T13:17:57.239Z,999.90
2022-09-16T13:20:33.557Z,741.13
2022-09-16T13:23:08.898Z,782.53
2022-09-16T13:26:07.648Z,801.27
2022-09-16T13:28:57.357Z,719.40
2022-09-16T13:34:50.973Z,999.90
2022-09-16T13:40:40.250Z,999.90
2022-09-16T13:43:18.140Z,999.90
2022-09-16T13:46:06.232Z,999.90
2022-09-16T13:48:52.729Z,999.90
2022-09-16T13:51:36.332Z,999.90
2022-09-16T13:55:09.486Z,999.90
2022-09-16T13:57:53.337Z,999.90
2022-09-16T14:04:17.099Z,999.90
2022-09-16T14:07:09.769Z,999.90
2022-09-16T14:10:08.021Z,999.90
2022-09-16T14:12:59.672Z,999.90
2022-09-16T14:15:50.013Z,816.50
2022-09-16T14:18:35.154Z,871.23
2022-09-16T14:21:21.266Z,549.10
2022-09-16T14:24:15.386Z,239.80
2022-09-16T14:26:58.914Z,999.90
2022-09-16T14:29:31.015Z,781.97
2022-09-16T14:32:17.654Z,734.47
2022-09-16T14:34:50.466Z,728.43
2022-09-16T14:40:28.581Z,999.90
2022-09-16T14:43:14.935Z,794.33
2022-09-16T14:48:46.250Z,751.73
2022-09-16T14:51:27.942Z,818.53
2022-09-16T14:54:32.463Z,850.03
2022-09-16T14:57:11.865Z,365.63
2022-09-16T14:59:49.455Z,561.30
2022-09-16T15:02:49.307Z,865.27
2022-09-16T15:05:27.716Z,999.90
2022-09-16T15:08:27.647Z,724.23
2022-09-16T15:11:07.715Z,830.43
2022-09-16T15:13:51.107Z,382.93
2022-09-16T15:16:37.654Z,494.00
2022-09-16T15:19:32.499Z,889.67
2022-09-16T15:25:01.787Z,657.03
2022-09-16T15:27:53.162Z,781.57
2022-09-16T15:30:47.435Z,646.03
2022-09-16T15:33:42.127Z,545.77
2022-09-16T15:36:46.271Z,685.20
2022-09-16T15:39:43.777Z,739.87
2022-09-16T15:42:26.314Z,908.33
2022-09-16T15:45:16.596Z,819.33
2022-09-16T15:48:22.612Z,811.50
2022-09-16T15:51:29.227Z,639.97
2022-09-16T15:57:22.059Z,590.70
2022-09-16T16:00:14.422Z,760.83
2022-09-16T16:02:56.967Z,870.17
2022-09-16T16:05:39.696Z,871.60
2022-09-16T16:08:25.334Z,747.87
2022-09-16T16:11:27.016Z,801.13
2022-09-16T16:14:22.064Z,649.27
2022-09-16T16:17:19.025Z,589.33
2022-09-16T16:19:58.213Z,553.70
2022-09-16T16:22:49.750Z,567.90
2022-09-16T16:25:20.719Z,506.83
2022-09-16T16:28:18.330Z,697.93
2022-09-16T16:34:09.486Z,526.33
2022-09-16T16:36:59.105Z,483.53
2022-09-16T16:39:33.486Z,478.33
2022-09-16T16:42:08.372Z,607.60
2022-09-16T16:44:46.897Z,652.27
2022-09-16T16:47:21.686Z,711.43
2022-09-16T16:50:04.792Z,766.60
2022-09-16T16:52:39.566Z,827.87
2022-09-16T16:55:27.877Z,903.63
2022-09-16T16:58:25.138Z,873.20
2022-09-16T17:01:26.930Z,972.87
2022-09-16T17:04:11.426Z,977.10
2022-09-16T17:07:26.661Z,923.30
2022-09-16T17:10:07.728Z,923.17
2022-09-16T17:15:38.587Z,940.40
2022-09-16T17:21:37.224Z,921.33
2022-09-16T17:24:11.248Z,914.77
2022-09-16T17:26:55.481Z,977.57
2022-09-16T17:32:29.552Z,908.23
2022-09-16T17:35:04.865Z,927.67
2022-09-16T17:40:45.464Z,922.10
2022-09-16T17:43:22.177Z,939.07
2022-09-16T17:45:56.946Z,977.97
2022-09-16T17:48:46.629Z,953.13
2022-09-16T17:51:26.917Z,929.30
2022-09-16T17:54:03.259Z,976.10
2022-09-16T17:56:39.497Z,985.93
2022-09-16T17:59:26.222Z,971.87
2022-09-16T18:02:22.212Z,924.40
2022-09-16T18:05:25.568Z,996.37
2022-09-16T18:07:58.422Z,971.87
2022-09-16T18:10:29.095Z,909.03
2022-09-16T18:12:59.733Z,891.63
2022-09-16T18:15:30.804Z,795.43
2022-09-16T18:18:01.734Z,805.20
2022-09-16T18:20:34.851Z,854.60
2022-09-16T18:23:05.991Z,916.80
2022-09-16T18:25:38.672Z,952.23
2022-09-16T18:28:09.283Z,986.67
2022-09-16T18:30:40.233Z,980.73
2022-09-16T18:33:11.242Z,983.10
2022-09-16T18:35:43.209Z,989.17
2022-09-16T18:38:14.168Z,977.03
2022-09-16T18:40:45.615Z,952.70
2022-09-16T18:43:16.292Z,891.13
2022-09-16T18:45:47.589Z,809.00
2022-09-16T18:48:18.055Z,740.10
2022-09-16T18:50:49.999Z,846.07
2022-09-16T18:53:20.743Z,523.13
2022-09-16T18:55:54.032Z,280.33
2022-09-16T18:58:24.597Z,774.73
2022-09-16T19:00:54.972Z,770.90
2022-09-16T19:03:25.326Z,810.13
2022-09-16T19:05:57.819Z,844.40
2022-09-16T19:08:28.344Z,853.90
2022-09-16T19:11:03.677Z,863.40
2022-09-16T19:13:34.433Z,447.23
2022-09-16T19:16:04.767Z,629.43
2022-09-16T19:18:35.986Z,650.10
2022-09-16T19:21:15.465Z,498.90
2022-09-16T19:23:48.493Z,639.23
2022-09-16T19:26:18.817Z,595.33
2022-09-16T19:28:49.315Z,809.73
2022-09-16T19:31:19.924Z,806.63
2022-09-16T19:33:50.669Z,881.07
2022-09-16T19:36:24.716Z,894.63
2022-09-16T19:38:56.390Z,899.93
2022-09-16T19:41:28.635Z,911.23
2022-09-16T19:44:00.666Z,879.67
2022-09-16T19:46:35.593Z,868.73
2022-09-16T19:49:06.460Z,721.73
2022-09-16T19:51:38.340Z,409.53
2022-09-16T19:54:08.708Z,861.80
2022-09-16T19:56:39.153Z,765.23
2022-09-16T19:59:10.370Z,705.33
2022-09-16T20:01:41.039Z,999.90
2022-09-16T20:04:11.878Z,999.90
2022-09-16T20:06:44.440Z,999.90
2022-09-16T20:09:15.316Z,999.90
2022-09-16T20:11:47.981Z,999.90
2022-09-16T20:14:20.330Z,999.90
2022-09-16T20:16:52.188Z,999.90
2022-09-16T20:19:23.071Z,999.90
2022-09-16T20:21:55.245Z,744.70
2022-09-16T20:24:26.074Z,999.90
2022-09-16T20:26:57.401Z,999.90
2022-09-16T20:29:28.173Z,999.90
2022-09-16T20:31:59.005Z,999.90
2022-09-16T20:34:29.727Z,999.90
2022-09-16T20:37:02.139Z,999.90
2022-09-16T20:39:33.276Z,735.83
2022-09-16T20:42:03.710Z,821.70
2022-09-16T20:44:34.155Z,480.97
2022-09-16T20:47:04.866Z,656.20
2022-09-16T20:49:35.840Z,462.67
2022-09-16T20:52:07.873Z,402.77
2022-09-16T20:54:38.505Z,517.53
2022-09-16T20:57:09.066Z,564.17
2022-09-16T20:59:39.651Z,633.00
2022-09-16T21:02:10.141Z,600.47
2022-09-16T21:04:40.905Z,517.63
2022-09-16T21:07:12.733Z,592.53
2022-09-16T21:09:44.028Z,651.57
2022-09-16T21:12:16.534Z,496.20
2022-09-16T21:14:46.629Z,834.13
2022-09-16T21:17:19.775Z,999.90
2022-09-16T21:19:50.307Z,730.80
2022-09-16T21:22:22.684Z,999.90
2022-09-16T21:24:52.794Z,999.90
2022-09-16T21:27:22.895Z,999.90
2022-09-16T21:29:52.955Z,999.90
2022-09-16T21:32:23.597Z,999.90
2022-09-16T21:34:53.693Z,999.90
2022-09-16T21:37:25.251Z,999.90
2022-09-16T21:39:55.434Z,999.90
2022-09-16T21:42:25.644Z,999.90
2022-09-16T21:44:57.927Z,999.90
2022-09-16T21:47:28.107Z,999.90
2022-09-16T21:49:59.020Z,999.90
2022-09-16T21:52:30.627Z,999.90
2022-09-16T21:55:01.054Z,999.90
2022-09-16T21:57:31.185Z,999.90
2022-09-16T22:00:01.294Z,999.90
2022-09-16T22:02:40.188Z,999.90
2022-09-16T22:05:10.686Z,999.90
2022-09-16T22:07:42.247Z,999.90
2022-09-16T22:10:12.499Z,999.90
2022-09-16T22:12:42.712Z,999.90
2022-09-16T22:15:12.848Z,999.90
2022-09-16T22:17:43.814Z,999.90
2022-09-16T22:20:14.279Z,999.90
2022-09-16T22:22:45.838Z,999.90
2022-09-16T22:25:16.220Z,999.90
2022-09-16T22:27:46.203Z,999.90
2022-09-16T22:30:16.823Z,999.90
2022-09-16T22:32:47.003Z,999.90
2022-09-16T22:35:17.906Z,999.90
2022-09-16T22:37:50.519Z,999.90
2022-09-16T22:40:23.869Z,999.90
2022-09-16T22:42:54.357Z,999.90
2022-09-16T22:45:24.809Z,999.90
2022-09-16T22:47:55.279Z,999.90
2022-09-16T22:50:25.761Z,746.80
2022-09-16T22:52:57.648Z,805.30
2022-09-16T22:55:28.294Z,793.67
2022-09-16T22:57:58.540Z,801.50
2022-09-16T23:00:29.140Z,777.03
2022-09-16T23:02:59.296Z,754.77
2022-09-16T23:05:29.725Z,828.73
2022-09-16T23:08:01.226Z,821.13
2022-09-16T23:10:31.642Z,999.90
2022-09-16T23:13:02.163Z,999.90
2022-09-16T23:15:34.902Z,719.30
2022-09-16T23:18:05.866Z,805.07
2022-09-16T23:20:36.453Z,814.47
2022-09-16T23:23:08.170Z,710.97
2022-09-16T23:25:38.304Z,999.90
2022-09-16T23:28:08.444Z,999.90
2022-09-16T23:30:38.888Z,999.90
2022-09-16T23:33:09.030Z,999.90
2022-09-16T23:35:39.366Z,999.90
2022-09-16T23:38:10.914Z,999.90
2022-09-16T23:40:41.837Z,999.90
2022-09-16T23:43:12.123Z,999.90
2022-09-16T23:45:42.921Z,999.90
2022-09-16T23:48:13.799Z,999.90
2022-09-16T23:50:45.212Z,999.90
2022-09-16T23:53:16.916Z,999.90
2022-09-16T23:55:47.822Z,999.90
2022-09-16T23:58:18.725Z,999.90
